sensor_id;sensor_type;location;lat;lon;timestamp;P1;durP1;ratioP1;P2;durP2;ratioP2
66972;SDS011;53902;51.466;-2.586;2023-04-25T00:00:46;13.98;;;3.85;;
66972;SDS011;53902;51.466;-2.586;2023-04-25T00:03:11;7.03;;;3.20;;
66972;SDS011;53902;51.466;-2.586;2023-04-25T00:05:37;12.00;;;3.95;;
66972;SDS011;53902;51.466;-2.586;2023-04-25T00:08:03;11.45;;;3.97;;
66972;SDS011;53902;51.466;-2.586;2023-04-25T00:10:29;12.18;;;3.50;;
66972;SDS011;53902;51.466;-2.586;2023-04-25T00:12:54;9.98;;;3.58;;
66972;SDS011;53902;51.466;-2.586;2023-04-25T00:15:19;13.82;;;3.25;;
66972;SDS011;53902;51.466;-2.586;2023-04-25T00:17:45;9.98;;;3.35;;
66972;SDS011;53902;51.466;-2.586;2023-04-25T00:20:11;22.35;;;4.53;;
66972;SDS011;53902;51.466;-2.586;2023-04-25T00:22:36;13.97;;;3.57;;
66972;SDS011;53902;51.466;-2.586;2023-04-25T00:25:03;11.65;;;3.85;;
66972;SDS011;53902;51.466;-2.586;2023-04-25T00:27:30;10.27;;;3.65;;
66972;SDS011;53902;51.466;-2.586;2023-04-25T00:29:55;9.75;;;3.38;;
66972;SDS011;53902;51.466;-2.586;2023-04-25T00:32:33;9.10;;;3.78;;
66972;SDS011;53902;51.466;-2.586;2023-04-25T00:34:58;9.02;;;3.60;;
66972;SDS011;53902;51.466;-2.586;2023-04-25T00:37:24;11.32;;;4.63;;
66972;SDS011;53902;51.466;-2.586;2023-04-25T00:39:50;13.73;;;4.40;;
66972;SDS011;53902;51.466;-2.586;2023-04-25T00:42:15;11.45;;;4.20;;
66972;SDS011;53902;51.466;-2.586;2023-04-25T00:44:41;14.63;;;4.80;;
66972;SDS011;53902;51.466;-2.586;2023-04-25T00:47:07;11.43;;;4.50;;
66972;SDS011;53902;51.466;-2.586;2023-04-25T00:49:33;13.60;;;4.15;;
66972;SDS011;53902;51.466;-2.586;2023-04-25T00:51:58;14.68;;;4.22;;
66972;SDS011;53902;51.466;-2.586;2023-04-25T00:54:24;14.18;;;4.53;;
66972;SDS011;53902;51.466;-2.586;2023-04-25T00:56:50;8.57;;;4.47;;
66972;SDS011;53902;51.466;-2.586;2023-04-25T00:59:15;10.35;;;4.35;;
66972;SDS011;53902;51.466;-2.586;2023-04-25T01:01:41;10.57;;;4.30;;
66972;SDS011;53902;51.466;-2.586;2023-04-25T01:04:07;10.53;;;4.80;;
66972;SDS011;53902;51.466;-2.586;2023-04-25T01:06:33;14.15;;;5.22;;
66972;SDS011;53902;51.466;-2.586;2023-04-25T01:08:58;10.38;;;5.00;;
66972;SDS011;53902;51.466;-2.586;2023-04-25T01:11:24;12.20;;;4.82;;
66972;SDS011;53902;51.466;-2.586;2023-04-25T01:13:50;11.38;;;4.53;;
66972;SDS011;53902;51.466;-2.586;2023-04-25T01:16:15;13.75;;;5.25;;
66972;SDS011;53902;51.466;-2.586;2023-04-25T01:18:41;12.95;;;5.15;;
66972;SDS011;53902;51.466;-2.586;2023-04-25T01:21:07;17.88;;;5.60;;
66972;SDS011;53902;51.466;-2.586;2023-04-25T01:23:34;16.58;;;5.22;;
66972;SDS011;53902;51.466;-2.586;2023-04-25T01:26:00;17.35;;;5.40;;
66972;SDS011;53902;51.466;-2.586;2023-04-25T01:28:26;14.70;;;5.95;;
66972;SDS011;53902;51.466;-2.586;2023-04-25T01:30:52;21.63;;;6.68;;
66972;SDS011;53902;51.466;-2.586;2023-04-25T01:33:18;21.58;;;7.45;;
66972;SDS011;53902;51.466;-2.586;2023-04-25T01:35:44;25.88;;;7.40;;
66972;SDS011;53902;51.466;-2.586;2023-04-25T01:38:09;18.65;;;6.80;;
66972;SDS011;53902;51.466;-2.586;2023-04-25T01:40:36;23.08;;;6.40;;
66972;SDS011;53902;51.466;-2.586;2023-04-25T01:43:04;18.40;;;6.10;;
66972;SDS011;53902;51.466;-2.586;2023-04-25T01:45:29;15.00;;;5.78;;
66972;SDS011;53902;51.466;-2.586;2023-04-25T01:47:54;12.35;;;5.72;;
66972;SDS011;53902;51.466;-2.586;2023-04-25T01:50:24;16.17;;;5.60;;
66972;SDS011;53902;51.466;-2.586;2023-04-25T01:52:49;14.48;;;5.78;;
66972;SDS011;53902;51.466;-2.586;2023-04-25T01:55:15;10.00;;;5.30;;
66972;SDS011;53902;51.466;-2.586;2023-04-25T01:57:41;17.27;;;5.78;;
66972;SDS011;53902;51.466;-2.586;2023-04-25T02:00:06;15.68;;;5.68;;
66972;SDS011;53902;51.466;-2.586;2023-04-25T02:02:33;15.20;;;5.65;;
66972;SDS011;53902;51.466;-2.586;2023-04-25T02:04:59;14.15;;;5.88;;
66972;SDS011;53902;51.466;-2.586;2023-04-25T02:07:25;16.65;;;5.97;;
66972;SDS011;53902;51.466;-2.586;2023-04-25T02:09:51;14.10;;;5.47;;
66972;SDS011;53902;51.466;-2.586;2023-04-25T02:12:16;14.60;;;5.53;;
66972;SDS011;53902;51.466;-2.586;2023-04-25T02:14:42;14.55;;;6.22;;
66972;SDS011;53902;51.466;-2.586;2023-04-25T02:17:07;14.55;;;5.60;;
66972;SDS011;53902;51.466;-2.586;2023-04-25T02:19:33;15.05;;;5.72;;
66972;SDS011;53902;51.466;-2.586;2023-04-25T02:21:58;8.93;;;5.47;;
66972;SDS011;53902;51.466;-2.586;2023-04-25T02:24:23;12.82;;;5.20;;
66972;SDS011;53902;51.466;-2.586;2023-04-25T02:26:49;10.75;;;5.78;;
66972;SDS011;53902;51.466;-2.586;2023-04-25T02:29:14;12.07;;;5.80;;
66972;SDS011;53902;51.466;-2.586;2023-04-25T02:31:40;15.45;;;6.40;;
66972;SDS011;53902;51.466;-2.586;2023-04-25T02:34:06;12.55;;;5.85;;
66972;SDS011;53902;51.466;-2.586;2023-04-25T02:36:31;14.80;;;5.93;;
66972;SDS011;53902;51.466;-2.586;2023-04-25T02:38:59;12.75;;;5.55;;
66972;SDS011;53902;51.466;-2.586;2023-04-25T02:41:25;21.23;;;6.53;;
66972;SDS011;53902;51.466;-2.586;2023-04-25T02:43:51;18.75;;;6.10;;
66972;SDS011;53902;51.466;-2.586;2023-04-25T02:46:16;18.08;;;6.22;;
66972;SDS011;53902;51.466;-2.586;2023-04-25T02:48:41;18.05;;;5.32;;
66972;SDS011;53902;51.466;-2.586;2023-04-25T02:51:07;13.02;;;5.03;;
66972;SDS011;53902;51.466;-2.586;2023-04-25T02:53:32;16.02;;;6.00;;
66972;SDS011;53902;51.466;-2.586;2023-04-25T02:55:58;15.15;;;5.72;;
66972;SDS011;53902;51.466;-2.586;2023-04-25T02:58:24;11.80;;;4.75;;
66972;SDS011;53902;51.466;-2.586;2023-04-25T03:00:50;18.25;;;5.47;;
66972;SDS011;53902;51.466;-2.586;2023-04-25T03:03:15;16.55;;;5.00;;
66972;SDS011;53902;51.466;-2.586;2023-04-25T03:05:42;16.20;;;4.97;;
66972;SDS011;53902;51.466;-2.586;2023-04-25T03:08:09;13.37;;;4.80;;
66972;SDS011;53902;51.466;-2.586;2023-04-25T03:10:34;13.88;;;5.30;;
66972;SDS011;53902;51.466;-2.586;2023-04-25T03:13:00;8.98;;;4.65;;
66972;SDS011;53902;51.466;-2.586;2023-04-25T03:15:25;13.73;;;5.13;;
66972;SDS011;53902;51.466;-2.586;2023-04-25T03:17:50;14.50;;;4.78;;
66972;SDS011;53902;51.466;-2.586;2023-04-25T03:20:16;10.35;;;4.18;;
66972;SDS011;53902;51.466;-2.586;2023-04-25T03:22:41;10.45;;;3.97;;
66972;SDS011;53902;51.466;-2.586;2023-04-25T03:25:07;13.10;;;4.03;;
66972;SDS011;53902;51.466;-2.586;2023-04-25T03:27:33;14.70;;;3.92;;
66972;SDS011;53902;51.466;-2.586;2023-04-25T03:29:58;12.73;;;4.50;;
66972;SDS011;53902;51.466;-2.586;2023-04-25T03:32:23;10.32;;;3.70;;
66972;SDS011;53902;51.466;-2.586;2023-04-25T03:34:49;10.48;;;3.33;;
66972;SDS011;53902;51.466;-2.586;2023-04-25T03:37:15;10.82;;;3.45;;
66972;SDS011;53902;51.466;-2.586;2023-04-25T03:39:40;6.38;;;3.60;;
66972;SDS011;53902;51.466;-2.586;2023-04-25T03:42:05;6.45;;;3.30;;
66972;SDS011;53902;51.466;-2.586;2023-04-25T03:44:31;10.10;;;3.65;;
66972;SDS011;53902;51.466;-2.586;2023-04-25T03:46:56;12.25;;;3.55;;
66972;SDS011;53902;51.466;-2.586;2023-04-25T03:49:22;11.35;;;3.50;;
66972;SDS011;53902;51.466;-2.586;2023-04-25T03:51:47;6.20;;;3.13;;
66972;SDS011;53902;51.466;-2.586;2023-04-25T03:54:12;11.88;;;3.78;;
66972;SDS011;53902;51.466;-2.586;2023-04-25T03:56:38;7.95;;;3.63;;
66972;SDS011;53902;51.466;-2.586;2023-04-25T03:59:03;9.43;;;3.15;;
66972;SDS011;53902;51.466;-2.586;2023-04-25T04:01:28;7.85;;;3.10;;
66972;SDS011;53902;51.466;-2.586;2023-04-25T04:03:54;9.85;;;3.17;;
66972;SDS011;53902;51.466;-2.586;2023-04-25T04:06:19;12.75;;;3.20;;
66972;SDS011;53902;51.466;-2.586;2023-04-25T04:08:45;8.60;;;3.33;;
66972;SDS011;53902;51.466;-2.586;2023-04-25T04:11:11;8.88;;;3.20;;
66972;SDS011;53902;51.466;-2.586;2023-04-25T04:13:36;6.13;;;2.90;;
66972;SDS011;53902;51.466;-2.586;2023-04-25T04:16:02;8.32;;;3.03;;
66972;SDS011;53902;51.466;-2.586;2023-04-25T04:18:29;10.55;;;3.20;;
66972;SDS011;53902;51.466;-2.586;2023-04-25T04:20:54;7.20;;;3.10;;
66972;SDS011;53902;51.466;-2.586;2023-04-25T04:23:20;15.68;;;3.47;;
66972;SDS011;53902;51.466;-2.586;2023-04-25T04:25:45;9.10;;;3.17;;
66972;SDS011;53902;51.466;-2.586;2023-04-25T04:28:11;6.93;;;3.10;;
66972;SDS011;53902;51.466;-2.586;2023-04-25T04:30:38;13.27;;;3.88;;
66972;SDS011;53902;51.466;-2.586;2023-04-25T04:33:04;13.35;;;3.60;;
66972;SDS011;53902;51.466;-2.586;2023-04-25T04:35:30;9.55;;;3.03;;
66972;SDS011;53902;51.466;-2.586;2023-04-25T04:37:55;11.80;;;3.40;;
66972;SDS011;53902;51.466;-2.586;2023-04-25T04:40:21;15.13;;;3.88;;
66972;SDS011;53902;51.466;-2.586;2023-04-25T04:42:47;9.60;;;3.17;;
66972;SDS011;53902;51.466;-2.586;2023-04-25T04:45:13;7.68;;;2.85;;
66972;SDS011;53902;51.466;-2.586;2023-04-25T04:47:39;9.60;;;2.55;;
66972;SDS011;53902;51.466;-2.586;2023-04-25T04:50:08;7.35;;;3.15;;
66972;SDS011;53902;51.466;-2.586;2023-04-25T04:52:37;11.00;;;3.00;;
66972;SDS011;53902;51.466;-2.586;2023-04-25T04:55:03;10.63;;;3.10;;
66972;SDS011;53902;51.466;-2.586;2023-04-25T04:57:30;11.45;;;3.35;;
66972;SDS011;53902;51.466;-2.586;2023-04-25T04:59:56;14.02;;;3.40;;
66972;SDS011;53902;51.466;-2.586;2023-04-25T05:02:21;9.30;;;3.42;;
66972;SDS011;53902;51.466;-2.586;2023-04-25T05:04:47;13.32;;;3.78;;
66972;SDS011;53902;51.466;-2.586;2023-04-25T05:07:12;8.07;;;2.92;;
66972;SDS011;53902;51.466;-2.586;2023-04-25T05:09:38;8.00;;;3.13;;
66972;SDS011;53902;51.466;-2.586;2023-04-25T05:12:03;7.47;;;4.10;;
66972;SDS011;53902;51.466;-2.586;2023-04-25T05:14:29;7.82;;;3.08;;
66972;SDS011;53902;51.466;-2.586;2023-04-25T05:16:54;7.05;;;3.28;;
66972;SDS011;53902;51.466;-2.586;2023-04-25T05:19:20;12.52;;;4.15;;
66972;SDS011;53902;51.466;-2.586;2023-04-25T05:21:45;9.60;;;4.22;;
66972;SDS011;53902;51.466;-2.586;2023-04-25T05:24:11;10.85;;;3.90;;
66972;SDS011;53902;51.466;-2.586;2023-04-25T05:26:37;9.07;;;3.95;;
66972;SDS011;53902;51.466;-2.586;2023-04-25T05:29:02;8.23;;;4.15;;
66972;SDS011;53902;51.466;-2.586;2023-04-25T05:31:28;15.15;;;3.88;;
66972;SDS011;53902;51.466;-2.586;2023-04-25T05:33:53;9.57;;;3.60;;
66972;SDS011;53902;51.466;-2.586;2023-04-25T05:36:19;8.32;;;3.95;;
66972;SDS011;53902;51.466;-2.586;2023-04-25T05:38:44;10.75;;;3.50;;
66972;SDS011;53902;51.466;-2.586;2023-04-25T05:41:10;10.82;;;3.80;;
66972;SDS011;53902;51.466;-2.586;2023-04-25T05:43:35;12.65;;;3.95;;
66972;SDS011;53902;51.466;-2.586;2023-04-25T05:46:01;6.22;;;3.70;;
66972;SDS011;53902;51.466;-2.586;2023-04-25T05:48:26;10.23;;;3.75;;
66972;SDS011;53902;51.466;-2.586;2023-04-25T05:50:51;11.20;;;4.25;;
66972;SDS011;53902;51.466;-2.586;2023-04-25T05:53:17;11.68;;;4.15;;
66972;SDS011;53902;51.466;-2.586;2023-04-25T05:55:43;6.35;;;3.63;;
66972;SDS011;53902;51.466;-2.586;2023-04-25T05:58:09;5.63;;;3.65;;
66972;SDS011;53902;51.466;-2.586;2023-04-25T06:00:34;6.82;;;3.60;;
66972;SDS011;53902;51.466;-2.586;2023-04-25T06:03:00;8.25;;;4.10;;
66972;SDS011;53902;51.466;-2.586;2023-04-25T06:05:26;9.23;;;4.03;;
66972;SDS011;53902;51.466;-2.586;2023-04-25T06:07:51;7.68;;;3.83;;
66972;SDS011;53902;51.466;-2.586;2023-04-25T06:10:17;11.65;;;4.40;;
66972;SDS011;53902;51.466;-2.586;2023-04-25T06:12:43;8.65;;;3.80;;
66972;SDS011;53902;51.466;-2.586;2023-04-25T06:15:08;11.80;;;3.70;;
66972;SDS011;53902;51.466;-2.586;2023-04-25T06:17:35;9.05;;;3.60;;
66972;SDS011;53902;51.466;-2.586;2023-04-25T06:20:00;9.77;;;3.97;;
66972;SDS011;53902;51.466;-2.586;2023-04-25T06:22:26;12.88;;;4.90;;
66972;SDS011;53902;51.466;-2.586;2023-04-25T06:24:52;14.02;;;4.57;;
66972;SDS011;53902;51.466;-2.586;2023-04-25T06:27:17;16.67;;;5.55;;
66972;SDS011;53902;51.466;-2.586;2023-04-25T06:29:42;11.82;;;3.53;;
66972;SDS011;53902;51.466;-2.586;2023-04-25T06:32:08;13.68;;;3.83;;
66972;SDS011;53902;51.466;-2.586;2023-04-25T06:34:33;9.77;;;4.15;;
66972;SDS011;53902;51.466;-2.586;2023-04-25T06:36:58;11.20;;;4.72;;
66972;SDS011;53902;51.466;-2.586;2023-04-25T06:39:24;11.55;;;3.97;;
66972;SDS011;53902;51.466;-2.586;2023-04-25T06:41:50;9.63;;;3.88;;
66972;SDS011;53902;51.466;-2.586;2023-04-25T06:44:16;9.80;;;3.55;;
66972;SDS011;53902;51.466;-2.586;2023-04-25T06:46:41;12.65;;;3.60;;
66972;SDS011;53902;51.466;-2.586;2023-04-25T06:49:07;12.55;;;3.50;;
66972;SDS011;53902;51.466;-2.586;2023-04-25T06:51:32;18.75;;;3.63;;
66972;SDS011;53902;51.466;-2.586;2023-04-25T06:53:59;7.60;;;3.45;;
66972;SDS011;53902;51.466;-2.586;2023-04-25T06:56:25;13.15;;;3.63;;
66972;SDS011;53902;51.466;-2.586;2023-04-25T06:58:50;11.90;;;3.67;;
66972;SDS011;53902;51.466;-2.586;2023-04-25T07:01:15;7.93;;;3.70;;
66972;SDS011;53902;51.466;-2.586;2023-04-25T07:03:41;11.43;;;3.53;;
66972;SDS011;53902;51.466;-2.586;2023-04-25T07:06:06;15.90;;;3.53;;
66972;SDS011;53902;51.466;-2.586;2023-04-25T07:08:31;14.57;;;4.07;;
66972;SDS011;53902;51.466;-2.586;2023-04-25T07:10:57;16.35;;;3.50;;
66972;SDS011;53902;51.466;-2.586;2023-04-25T07:13:22;10.38;;;3.08;;
66972;SDS011;53902;51.466;-2.586;2023-04-25T07:15:48;7.40;;;2.80;;
66972;SDS011;53902;51.466;-2.586;2023-04-25T07:18:13;10.73;;;2.63;;
66972;SDS011;53902;51.466;-2.586;2023-04-25T07:20:39;14.25;;;3.53;;
66972;SDS011;53902;51.466;-2.586;2023-04-25T07:23:04;12.52;;;3.22;;
66972;SDS011;53902;51.466;-2.586;2023-04-25T07:25:30;11.48;;;3.00;;
66972;SDS011;53902;51.466;-2.586;2023-04-25T07:27:55;10.48;;;2.85;;
66972;SDS011;53902;51.466;-2.586;2023-04-25T07:30:21;10.68;;;2.53;;
66972;SDS011;53902;51.466;-2.586;2023-04-25T07:32:47;9.77;;;2.85;;
66972;SDS011;53902;51.466;-2.586;2023-04-25T07:35:13;8.60;;;2.13;;
66972;SDS011;53902;51.466;-2.586;2023-04-25T07:37:38;9.60;;;2.80;;
66972;SDS011;53902;51.466;-2.586;2023-04-25T07:40:04;16.67;;;2.67;;
66972;SDS011;53902;51.466;-2.586;2023-04-25T07:42:30;14.25;;;2.20;;
66972;SDS011;53902;51.466;-2.586;2023-04-25T07:44:56;8.75;;;2.30;;
66972;SDS011;53902;51.466;-2.586;2023-04-25T07:47:21;7.18;;;2.45;;
66972;SDS011;53902;51.466;-2.586;2023-04-25T07:49:46;9.55;;;2.40;;
66972;SDS011;53902;51.466;-2.586;2023-04-25T07:52:12;8.25;;;2.20;;
66972;SDS011;53902;51.466;-2.586;2023-04-25T07:54:37;7.28;;;2.20;;
66972;SDS011;53902;51.466;-2.586;2023-04-25T07:57:03;5.18;;;1.67;;
66972;SDS011;53902;51.466;-2.586;2023-04-25T07:59:28;7.95;;;1.92;;
66972;SDS011;53902;51.466;-2.586;2023-04-25T08:01:54;6.30;;;1.52;;
66972;SDS011;53902;51.466;-2.586;2023-04-25T08:04:19;11.95;;;1.90;;
66972;SDS011;53902;51.466;-2.586;2023-04-25T08:06:57;9.32;;;1.88;;
66972;SDS011;53902;51.466;-2.586;2023-04-25T08:09:22;9.10;;;1.60;;
66972;SDS011;53902;51.466;-2.586;2023-04-25T08:11:48;7.70;;;2.17;;
66972;SDS011;53902;51.466;-2.586;2023-04-25T08:14:13;6.68;;;2.10;;
66972;SDS011;53902;51.466;-2.586;2023-04-25T08:16:39;7.40;;;1.80;;
66972;SDS011;53902;51.466;-2.586;2023-04-25T08:19:05;3.92;;;1.50;;
66972;SDS011;53902;51.466;-2.586;2023-04-25T08:21:30;12.60;;;2.22;;
66972;SDS011;53902;51.466;-2.586;2023-04-25T08:23:56;5.35;;;1.58;;
66972;SDS011;53902;51.466;-2.586;2023-04-25T08:26:23;8.93;;;1.90;;
66972;SDS011;53902;51.466;-2.586;2023-04-25T08:28:48;10.50;;;1.45;;
66972;SDS011;53902;51.466;-2.586;2023-04-25T08:31:14;6.80;;;1.58;;
66972;SDS011;53902;51.466;-2.586;2023-04-25T08:33:40;6.47;;;1.70;;
66972;SDS011;53902;51.466;-2.586;2023-04-25T08:36:05;7.20;;;1.30;;
66972;SDS011;53902;51.466;-2.586;2023-04-25T08:38:31;13.30;;;2.03;;
66972;SDS011;53902;51.466;-2.586;2023-04-25T08:40:56;6.65;;;1.30;;
66972;SDS011;53902;51.466;-2.586;2023-04-25T08:43:22;11.60;;;1.70;;
66972;SDS011;53902;51.466;-2.586;2023-04-25T08:45:48;4.13;;;1.08;;
66972;SDS011;53902;51.466;-2.586;2023-04-25T08:48:14;4.60;;;1.00;;
66972;SDS011;53902;51.466;-2.586;2023-04-25T08:53:10;5.15;;;1.17;;
66972;SDS011;53902;51.466;-2.586;2023-04-25T08:55:41;2.25;;;1.10;;
66972;SDS011;53902;51.466;-2.586;2023-04-25T08:58:07;7.65;;;1.13;;
66972;SDS011;53902;51.466;-2.586;2023-04-25T09:00:32;4.13;;;0.90;;
66972;SDS011;53902;51.466;-2.586;2023-04-25T09:02:58;4.20;;;0.98;;
66972;SDS011;53902;51.466;-2.586;2023-04-25T09:05:24;4.35;;;0.90;;
66972;SDS011;53902;51.466;-2.586;2023-04-25T09:07:50;3.30;;;0.95;;
66972;SDS011;53902;51.466;-2.586;2023-04-25T09:10:15;1.63;;;0.95;;
66972;SDS011;53902;51.466;-2.586;2023-04-25T09:12:41;5.82;;;1.02;;
66972;SDS011;53902;51.466;-2.586;2023-04-25T09:15:08;5.00;;;1.10;;
66972;SDS011;53902;51.466;-2.586;2023-04-25T09:17:35;6.63;;;1.20;;
66972;SDS011;53902;51.466;-2.586;2023-04-25T09:20:14;2.90;;;1.00;;
66972;SDS011;53902;51.466;-2.586;2023-04-25T09:22:40;6.20;;;1.20;;
66972;SDS011;53902;51.466;-2.586;2023-04-25T09:25:09;4.57;;;1.10;;
66972;SDS011;53902;51.466;-2.586;2023-04-25T09:27:36;7.28;;;1.15;;
66972;SDS011;53902;51.466;-2.586;2023-04-25T09:30:02;4.13;;;1.20;;
66972;SDS011;53902;51.466;-2.586;2023-04-25T09:32:27;4.43;;;1.05;;
66972;SDS011;53902;51.466;-2.586;2023-04-25T09:34:56;5.38;;;1.20;;
66972;SDS011;53902;51.466;-2.586;2023-04-25T09:37:26;6.03;;;1.27;;
66972;SDS011;53902;51.466;-2.586;2023-04-25T09:39:54;4.28;;;0.98;;
66972;SDS011;53902;51.466;-2.586;2023-04-25T09:42:24;2.50;;;0.90;;
66972;SDS011;53902;51.466;-2.586;2023-04-25T09:44:54;4.90;;;0.95;;
66972;SDS011;53902;51.466;-2.586;2023-04-25T09:47:20;5.03;;;1.10;;
66972;SDS011;53902;51.466;-2.586;2023-04-25T09:49:48;8.02;;;1.10;;
66972;SDS011;53902;51.466;-2.586;2023-04-25T09:52:15;7.07;;;1.40;;
66972;SDS011;53902;51.466;-2.586;2023-04-25T09:54:42;5.65;;;0.70;;
66972;SDS011;53902;51.466;-2.586;2023-04-25T09:59:39;5.05;;;0.70;;
66972;SDS011;53902;51.466;-2.586;2023-04-25T10:02:14;4.53;;;0.93;;
66972;SDS011;53902;51.466;-2.586;2023-04-25T10:04:41;2.13;;;0.70;;
66972;SDS011;53902;51.466;-2.586;2023-04-25T10:07:08;2.10;;;0.80;;
66972;SDS011;53902;51.466;-2.586;2023-04-25T10:09:36;3.53;;;0.60;;
66972;SDS011;53902;51.466;-2.586;2023-04-25T10:12:02;3.90;;;0.82;;
66972;SDS011;53902;51.466;-2.586;2023-04-25T10:14:31;2.37;;;0.93;;
66972;SDS011;53902;51.466;-2.586;2023-04-25T10:17:00;2.42;;;0.80;;
66972;SDS011;53902;51.466;-2.586;2023-04-25T10:19:26;4.57;;;0.70;;
66972;SDS011;53902;51.466;-2.586;2023-04-25T10:22:02;2.47;;;0.80;;
66972;SDS011;53902;51.466;-2.586;2023-04-25T10:24:30;1.55;;;0.80;;
66972;SDS011;53902;51.466;-2.586;2023-04-25T10:26:55;1.55;;;0.75;;
66972;SDS011;53902;51.466;-2.586;2023-04-25T10:29:22;3.95;;;0.80;;
66972;SDS011;53902;51.466;-2.586;2023-04-25T10:31:48;3.40;;;1.00;;
66972;SDS011;53902;51.466;-2.586;2023-04-25T10:34:14;1.48;;;0.60;;
66972;SDS011;53902;51.466;-2.586;2023-04-25T10:36:41;6.18;;;0.80;;
66972;SDS011;53902;51.466;-2.586;2023-04-25T10:39:06;5.38;;;0.85;;
66972;SDS011;53902;51.466;-2.586;2023-04-25T10:41:46;3.08;;;1.15;;
66972;SDS011;53902;51.466;-2.586;2023-04-25T10:44:13;4.38;;;0.90;;
66972;SDS011;53902;51.466;-2.586;2023-04-25T10:46:39;1.77;;;0.77;;
66972;SDS011;53902;51.466;-2.586;2023-04-25T10:49:04;1.17;;;0.82;;
66972;SDS011;53902;51.466;-2.586;2023-04-25T10:51:33;2.40;;;0.75;;
66972;SDS011;53902;51.466;-2.586;2023-04-25T10:54:06;1.88;;;0.75;;
66972;SDS011;53902;51.466;-2.586;2023-04-25T11:01:37;5.45;;;0.93;;
66972;SDS011;53902;51.466;-2.586;2023-04-25T11:04:04;3.85;;;1.00;;
66972;SDS011;53902;51.466;-2.586;2023-04-25T11:06:46;4.30;;;1.05;;
66972;SDS011;53902;51.466;-2.586;2023-04-25T11:09:38;3.15;;;0.90;;
66972;SDS011;53902;51.466;-2.586;2023-04-25T11:12:07;4.05;;;0.93;;
66972;SDS011;53902;51.466;-2.586;2023-04-25T11:14:32;2.78;;;0.70;;
66972;SDS011;53902;51.466;-2.586;2023-04-25T11:16:58;1.23;;;0.90;;
66972;SDS011;53902;51.466;-2.586;2023-04-25T11:19:25;4.55;;;0.68;;
66972;SDS011;53902;51.466;-2.586;2023-04-25T11:21:54;2.47;;;1.02;;
66972;SDS011;53902;51.466;-2.586;2023-04-25T11:24:25;2.03;;;0.90;;
66972;SDS011;53902;51.466;-2.586;2023-04-25T11:26:51;1.67;;;0.60;;
66972;SDS011;53902;51.466;-2.586;2023-04-25T11:29:17;3.60;;;1.00;;
66972;SDS011;53902;51.466;-2.586;2023-04-25T11:31:45;1.75;;;0.90;;
66972;SDS011;53902;51.466;-2.586;2023-04-25T11:34:10;2.33;;;0.80;;
66972;SDS011;53902;51.466;-2.586;2023-04-25T11:36:36;2.30;;;1.05;;
66972;SDS011;53902;51.466;-2.586;2023-04-25T11:39:04;2.13;;;0.80;;
66972;SDS011;53902;51.466;-2.586;2023-04-25T11:41:30;4.72;;;0.98;;
66972;SDS011;53902;51.466;-2.586;2023-04-25T11:43:56;2.92;;;0.90;;
66972;SDS011;53902;51.466;-2.586;2023-04-25T11:46:21;2.55;;;0.98;;
66972;SDS011;53902;51.466;-2.586;2023-04-25T11:48:47;3.03;;;0.80;;
66972;SDS011;53902;51.466;-2.586;2023-04-25T11:51:12;4.00;;;1.13;;
66972;SDS011;53902;51.466;-2.586;2023-04-25T11:53:40;1.95;;;0.80;;
66972;SDS011;53902;51.466;-2.586;2023-04-25T11:56:10;4.18;;;0.98;;
66972;SDS011;53902;51.466;-2.586;2023-04-25T12:01:31;2.72;;;0.90;;
66972;SDS011;53902;51.466;-2.586;2023-04-25T12:03:58;3.35;;;1.20;;
66972;SDS011;53902;51.466;-2.586;2023-04-25T12:06:27;2.55;;;0.70;;
66972;SDS011;53902;51.466;-2.586;2023-04-25T12:09:03;1.80;;;0.90;;
66972;SDS011;53902;51.466;-2.586;2023-04-25T12:11:32;6.35;;;0.80;;
66972;SDS011;53902;51.466;-2.586;2023-04-25T12:14:03;1.40;;;0.90;;
66972;SDS011;53902;51.466;-2.586;2023-04-25T12:16:29;3.28;;;0.90;;
66972;SDS011;53902;51.466;-2.586;2023-04-25T12:19:05;2.33;;;0.98;;
66972;SDS011;53902;51.466;-2.586;2023-04-25T12:21:30;1.48;;;0.80;;
66972;SDS011;53902;51.466;-2.586;2023-04-25T12:24:07;3.33;;;1.00;;
66972;SDS011;53902;51.466;-2.586;2023-04-25T12:26:47;1.48;;;1.00;;
66972;SDS011;53902;51.466;-2.586;2023-04-25T12:29:17;3.70;;;1.00;;
66972;SDS011;53902;51.466;-2.586;2023-04-25T12:31:43;5.22;;;1.10;;
66972;SDS011;53902;51.466;-2.586;2023-04-25T12:34:09;3.67;;;1.00;;
66972;SDS011;53902;51.466;-2.586;2023-04-25T12:36:35;2.83;;;1.00;;
66972;SDS011;53902;51.466;-2.586;2023-04-25T12:39:00;1.85;;;0.90;;
66972;SDS011;53902;51.466;-2.586;2023-04-25T12:41:29;3.08;;;1.00;;
66972;SDS011;53902;51.466;-2.586;2023-04-25T12:43:54;2.95;;;0.90;;
66972;SDS011;53902;51.466;-2.586;2023-04-25T12:46:20;2.58;;;0.95;;
66972;SDS011;53902;51.466;-2.586;2023-04-25T12:48:45;3.40;;;0.90;;
66972;SDS011;53902;51.466;-2.586;2023-04-25T12:51:11;3.15;;;0.90;;
66972;SDS011;53902;51.466;-2.586;2023-04-25T12:53:36;2.67;;;0.90;;
66972;SDS011;53902;51.466;-2.586;2023-04-25T12:56:02;2.20;;;0.98;;
66972;SDS011;53902;51.466;-2.586;2023-04-25T12:58:28;2.78;;;0.90;;
66972;SDS011;53902;51.466;-2.586;2023-04-25T13:00:53;4.43;;;1.23;;
66972;SDS011;53902;51.466;-2.586;2023-04-25T13:03:19;3.22;;;1.60;;
66972;SDS011;53902;51.466;-2.586;2023-04-25T13:05:44;3.08;;;1.00;;
66972;SDS011;53902;51.466;-2.586;2023-04-25T13:08:10;2.33;;;0.77;;
66972;SDS011;53902;51.466;-2.586;2023-04-25T13:10:36;1.67;;;0.85;;
66972;SDS011;53902;51.466;-2.586;2023-04-25T13:13:03;4.93;;;1.20;;
66972;SDS011;53902;51.466;-2.586;2023-04-25T13:15:28;3.10;;;0.80;;
66972;SDS011;53902;51.466;-2.586;2023-04-25T13:17:54;2.15;;;0.82;;
66972;SDS011;53902;51.466;-2.586;2023-04-25T13:20:20;4.13;;;1.10;;
66972;SDS011;53902;51.466;-2.586;2023-04-25T13:22:47;2.80;;;1.00;;
66972;SDS011;53902;51.466;-2.586;2023-04-25T13:25:12;1.75;;;1.00;;
66972;SDS011;53902;51.466;-2.586;2023-04-25T13:30:25;4.95;;;1.33;;
66972;SDS011;53902;51.466;-2.586;2023-04-25T13:32:50;5.57;;;1.10;;
66972;SDS011;53902;51.466;-2.586;2023-04-25T13:35:16;1.35;;;0.80;;
66972;SDS011;53902;51.466;-2.586;2023-04-25T13:37:42;1.65;;;0.82;;
66972;SDS011;53902;51.466;-2.586;2023-04-25T13:40:08;1.98;;;1.17;;
66972;SDS011;53902;51.466;-2.586;2023-04-25T13:42:35;1.33;;;0.80;;
66972;SDS011;53902;51.466;-2.586;2023-04-25T13:45:01;1.05;;;0.70;;
66972;SDS011;53902;51.466;-2.586;2023-04-25T13:47:27;2.28;;;0.93;;
66972;SDS011;53902;51.466;-2.586;2023-04-25T13:49:52;3.13;;;1.10;;
66972;SDS011;53902;51.466;-2.586;2023-04-25T13:52:18;3.55;;;1.08;;
66972;SDS011;53902;51.466;-2.586;2023-04-25T13:54:43;2.72;;;1.00;;
66972;SDS011;53902;51.466;-2.586;2023-04-25T13:57:09;2.78;;;0.77;;
66972;SDS011;53902;51.466;-2.586;2023-04-25T14:02:01;2.03;;;1.00;;
66972;SDS011;53902;51.466;-2.586;2023-04-25T14:04:27;1.48;;;0.68;;
66972;SDS011;53902;51.466;-2.586;2023-04-25T14:06:52;1.48;;;0.95;;
66972;SDS011;53902;51.466;-2.586;2023-04-25T14:09:18;1.77;;;1.00;;
66972;SDS011;53902;51.466;-2.586;2023-04-25T14:11:45;3.20;;;0.90;;
66972;SDS011;53902;51.466;-2.586;2023-04-25T14:14:11;1.65;;;0.90;;
66972;SDS011;53902;51.466;-2.586;2023-04-25T14:16:38;1.70;;;0.80;;
66972;SDS011;53902;51.466;-2.586;2023-04-25T14:19:03;2.17;;;0.82;;
66972;SDS011;53902;51.466;-2.586;2023-04-25T14:21:29;2.00;;;0.80;;
66972;SDS011;53902;51.466;-2.586;2023-04-25T14:23:56;3.45;;;1.20;;
66972;SDS011;53902;51.466;-2.586;2023-04-25T14:26:21;5.22;;;1.30;;
66972;SDS011;53902;51.466;-2.586;2023-04-25T14:28:47;3.55;;;1.33;;
66972;SDS011;53902;51.466;-2.586;2023-04-25T14:31:12;2.88;;;1.40;;
66972;SDS011;53902;51.466;-2.586;2023-04-25T14:33:38;3.25;;;1.00;;
66972;SDS011;53902;51.466;-2.586;2023-04-25T14:36:06;1.75;;;1.02;;
66972;SDS011;53902;51.466;-2.586;2023-04-25T14:38:32;2.90;;;1.05;;
66972;SDS011;53902;51.466;-2.586;2023-04-25T14:40:57;5.07;;;0.80;;